createdAt,value
2019-04-06T00:02:03.023Z,55.00
2019-04-06T00:04:35.139Z,48.92
2019-04-06T00:07:06.661Z,71.72
2019-04-06T00:09:39.052Z,100.87
2019-04-06T00:12:10.941Z,100.78
2019-04-06T00:14:42.879Z,102.70
2019-04-06T00:17:16.997Z,103.90
2019-04-06T00:19:48.511Z,67.40
2019-04-06T00:22:20.562Z,115.90
2019-04-06T00:24:52.532Z,83.40
2019-04-06T00:27:24.679Z,140.50
2019-04-06T00:29:56.210Z,64.60
2019-04-06T00:32:30.123Z,69.95
2019-04-06T00:35:02.619Z,56.45
2019-04-06T00:37:33.867Z,56.98
2019-04-06T00:40:07.949Z,50.25
2019-04-06T00:42:41.768Z,51.90
2019-04-06T00:45:14.060Z,47.43
2019-04-06T00:47:45.467Z,51.13
2019-04-06T00:50:19.406Z,52.00
2019-04-06T00:52:52.009Z,55.52
2019-04-06T00:55:23.936Z,50.12
2019-04-06T00:57:56.736Z,49.75
2019-04-06T01:00:29.425Z,56.40
2019-04-06T01:03:03.570Z,51.73
2019-04-06T01:05:35.981Z,59.05
2019-04-06T01:08:10.253Z,48.75
2019-04-06T01:10:44.692Z,48.38
2019-04-06T01:13:17.606Z,44.13
2019-04-06T01:15:49.785Z,49.58
2019-04-06T01:18:21.098Z,45.05
2019-04-06T01:20:53.358Z,47.62
2019-04-06T01:23:27.711Z,51.05
2019-04-06T01:26:06.929Z,47.73
2019-04-06T01:28:33.849Z,45.65
2019-04-06T01:31:07.045Z,57.43
2019-04-06T01:33:38.400Z,44.75
2019-04-06T01:36:10.785Z,45.08
2019-04-06T01:38:45.004Z,43.60
2019-04-06T01:41:16.319Z,58.23
2019-04-06T01:43:50.025Z,41.83
2019-04-06T01:46:22.322Z,44.83
2019-04-06T01:48:56.294Z,41.20
2019-04-06T01:51:27.771Z,40.00
2019-04-06T01:54:00.048Z,38.95
2019-04-06T01:56:32.877Z,40.15
2019-04-06T01:59:05.115Z,44.40
2019-04-06T02:01:38.653Z,41.15
2019-04-06T02:04:12.133Z,36.28
2019-04-06T02:06:43.270Z,35.83
2019-04-06T02:09:14.578Z,36.55
2019-04-06T02:11:48.072Z,32.13
2019-04-06T02:14:20.548Z,33.45
2019-04-06T02:16:54.836Z,31.48
2019-04-06T02:19:29.309Z,34.00
2019-04-06T02:22:01.488Z,31.27
2019-04-06T02:24:33.818Z,28.38
2019-04-06T02:27:06.990Z,30.88
2019-04-06T02:29:38.177Z,29.98
2019-04-06T02:32:11.040Z,28.92
2019-04-06T02:34:49.532Z,27.65
2019-04-06T02:37:22.987Z,29.25
2019-04-06T02:39:58.684Z,27.10
2019-04-06T02:42:32.370Z,28.73
2019-04-06T02:45:04.829Z,27.70
2019-04-06T02:47:37.454Z,28.95
2019-04-06T02:50:10.826Z,27.70
2019-04-06T02:52:44.785Z,26.68
2019-04-06T02:55:19.993Z,26.40
2019-04-06T02:57:52.465Z,26.40
2019-04-06T03:00:42.285Z,28.75
2019-04-06T03:03:14.462Z,26.52
2019-04-06T03:05:48.449Z,26.75
2019-04-06T03:08:24.372Z,30.65
2019-04-06T03:10:56.497Z,31.30
2019-04-06T03:13:32.022Z,26.77
2019-04-06T03:16:03.111Z,27.22
2019-04-06T03:18:35.107Z,28.90
2019-04-06T03:21:07.608Z,28.98
2019-04-06T03:23:50.842Z,29.52
2019-04-06T03:26:14.029Z,30.57
2019-04-06T03:28:49.498Z,28.42
2019-04-06T03:31:25.179Z,27.20
2019-04-06T03:33:54.644Z,26.10
2019-04-06T03:39:14.637Z,28.67
2019-04-06T03:42:04.274Z,24.98
2019-04-06T03:44:35.757Z,23.95
2019-04-06T03:47:16.632Z,25.32
2019-04-06T03:49:49.101Z,25.72
2019-04-06T03:52:21.161Z,25.92
2019-04-06T03:54:53.335Z,24.10
2019-04-06T03:57:27.549Z,22.77
2019-04-06T03:59:59.415Z,25.88
2019-04-06T04:02:31.968Z,22.73
2019-04-06T04:05:04.722Z,26.07
2019-04-06T04:07:37.589Z,24.12
2019-04-06T04:10:11.608Z,23.40
2019-04-06T04:12:46.405Z,24.55
2019-04-06T04:15:18.187Z,24.80
2019-04-06T04:17:51.086Z,25.25
2019-04-06T04:20:25.576Z,24.87
2019-04-06T04:22:58.681Z,23.75
2019-04-06T04:25:31.509Z,23.55
2019-04-06T04:28:05.723Z,25.52
2019-04-06T04:30:37.538Z,23.10
2019-04-06T04:33:13.113Z,25.30
2019-04-06T04:35:49.157Z,24.10
2019-04-06T04:38:23.722Z,24.07
2019-04-06T04:40:58.760Z,23.47
2019-04-06T04:43:33.100Z,24.80
2019-04-06T04:46:04.701Z,24.80
2019-04-06T04:48:35.989Z,24.87
2019-04-06T04:51:10.488Z,22.93
2019-04-06T04:53:42.104Z,23.90
2019-04-06T04:56:16.861Z,22.70
2019-04-06T04:58:49.487Z,24.18
2019-04-06T05:01:20.882Z,22.05
2019-04-06T05:03:52.629Z,24.00
2019-04-06T05:06:25.480Z,24.52
2019-04-06T05:09:00.728Z,24.05
2019-04-06T05:11:33.429Z,22.93
2019-04-06T05:14:44.638Z,25.25
2019-04-06T05:17:17.513Z,23.12
2019-04-06T05:19:50.003Z,22.62
2019-04-06T05:22:25.873Z,22.00
2019-04-06T05:24:58.812Z,26.73
2019-04-06T05:27:31.808Z,22.90
2019-04-06T05:30:10.478Z,24.80
2019-04-06T05:32:43.351Z,22.55
2019-04-06T05:35:17.442Z,22.32
2019-04-06T05:37:50.209Z,21.93
2019-04-06T05:40:24.600Z,22.00
2019-04-06T05:42:56.472Z,22.60
2019-04-06T05:45:28.859Z,22.32
2019-04-06T05:48:01.545Z,22.60
2019-04-06T05:50:34.184Z,27.90
2019-04-06T05:53:08.237Z,22.13
2019-04-06T05:55:41.109Z,23.12
2019-04-06T05:58:15.617Z,23.92
2019-04-06T06:00:47.375Z,22.52
2019-04-06T06:03:19.222Z,25.70
2019-04-06T06:05:50.824Z,34.65
2019-04-06T06:08:23.355Z,24.72
2019-04-06T06:10:56.802Z,34.78
2019-04-06T06:13:29.512Z,27.30
2019-04-06T06:16:02.079Z,26.90
2019-04-06T06:18:36.782Z,22.00
2019-04-06T06:21:08.228Z,26.27
2019-04-06T06:23:41.192Z,28.65
2019-04-06T06:26:13.990Z,23.50
2019-04-06T06:28:47.122Z,24.57
2019-04-06T06:31:20.808Z,24.10
2019-04-06T06:33:53.638Z,24.90
2019-04-06T06:36:27.896Z,23.05
2019-04-06T06:39:00.651Z,23.50
2019-04-06T06:41:32.197Z,22.85
2019-04-06T06:44:06.439Z,24.37
2019-04-06T06:46:39.017Z,23.67
2019-04-06T06:49:12.685Z,25.92
2019-04-06T06:51:47.355Z,24.50
2019-04-06T06:54:18.927Z,24.07
2019-04-06T06:56:51.554Z,23.27
2019-04-06T06:59:23.480Z,26.20
2019-04-06T07:01:58.072Z,25.90
2019-04-06T07:04:32.401Z,24.02
2019-04-06T07:07:05.320Z,23.15
2019-04-06T07:09:38.222Z,24.47
2019-04-06T07:12:10.968Z,23.22
2019-04-06T07:14:43.813Z,23.32
2019-04-06T07:17:16.686Z,21.75
2019-04-06T07:19:49.406Z,21.62
2019-04-06T07:22:23.761Z,22.22
2019-04-06T07:24:58.164Z,23.02
2019-04-06T07:27:29.712Z,22.10
2019-04-06T07:30:01.409Z,20.17
2019-04-06T07:32:32.984Z,18.95
2019-04-06T07:35:05.593Z,20.00
2019-04-06T07:37:37.615Z,19.60
2019-04-06T07:40:10.977Z,18.40
2019-04-06T07:42:42.743Z,17.82
2019-04-06T07:45:15.567Z,18.73
2019-04-06T07:47:48.367Z,17.67
2019-04-06T07:50:20.019Z,18.25
2019-04-06T07:52:52.145Z,17.90
2019-04-06T07:55:26.841Z,18.12
2019-04-06T07:57:59.544Z,21.55
2019-04-06T08:00:33.882Z,19.48
2019-04-06T08:03:07.162Z,19.48
2019-04-06T08:05:39.893Z,19.67
2019-04-06T08:08:12.564Z,20.65
2019-04-06T08:10:46.970Z,20.70
2019-04-06T08:13:21.584Z,23.45
2019-04-06T08:15:54.354Z,20.15
2019-04-06T08:18:29.226Z,21.52
2019-04-06T08:23:50.123Z,21.82
2019-04-06T08:26:25.174Z,20.05
2019-04-06T08:29:02.235Z,21.87
2019-04-06T08:31:32.837Z,21.33
2019-04-06T08:34:05.681Z,20.40
2019-04-06T08:36:40.717Z,20.15
2019-04-06T08:39:13.635Z,21.17
2019-04-06T08:41:48.439Z,23.32
2019-04-06T08:46:53.104Z,20.65
2019-04-06T08:49:25.705Z,21.57
2019-04-06T08:51:58.341Z,20.55
2019-04-06T08:54:32.013Z,21.50
2019-04-06T08:57:11.172Z,20.85
2019-04-06T08:59:43.660Z,20.92
2019-04-06T09:02:15.400Z,21.30
2019-04-06T09:04:47.363Z,20.88
2019-04-06T09:07:23.600Z,21.35
2019-04-06T09:09:57.672Z,22.05
2019-04-06T09:12:29.130Z,22.67
2019-04-06T09:15:03.594Z,21.90
2019-04-06T09:17:36.361Z,23.20
2019-04-06T09:20:29.192Z,22.07
2019-04-06T09:23:04.184Z,22.85
2019-04-06T09:28:11.066Z,21.60
2019-04-06T09:30:42.688Z,21.95
2019-04-06T09:33:14.090Z,21.52
2019-04-06T09:35:46.974Z,20.85
2019-04-06T09:38:24.329Z,22.32
2019-04-06T09:40:56.762Z,22.10
2019-04-06T09:43:28.666Z,21.23
2019-04-06T09:46:22.188Z,21.15
2019-04-06T09:48:57.427Z,23.80
2019-04-06T09:51:31.483Z,21.80
2019-04-06T09:54:21.907Z,21.48
2019-04-06T09:56:59.314Z,21.90
2019-04-06T09:59:36.978Z,21.02
2019-04-06T10:02:12.433Z,22.52
2019-04-06T10:05:04.331Z,22.15
2019-04-06T10:07:55.877Z,21.52
2019-04-06T10:10:49.533Z,22.58
2019-04-06T10:13:25.395Z,20.80
2019-04-06T10:15:59.413Z,22.40
2019-04-06T10:18:51.098Z,21.68
2019-04-06T10:21:30.082Z,21.77
2019-04-06T10:24:23.049Z,21.62
2019-04-06T10:26:57.017Z,23.20
2019-04-06T10:29:48.334Z,24.47
2019-04-06T10:32:30.178Z,30.15
2019-04-06T10:35:07.139Z,22.60
2019-04-06T10:37:45.335Z,31.87
2019-04-06T10:40:36.333Z,48.58
2019-04-06T10:43:11.148Z,53.55
2019-04-06T10:45:45.405Z,27.20
2019-04-06T10:48:22.754Z,38.92
2019-04-06T10:50:59.749Z,74.45
2019-04-06T10:53:36.795Z,44.03
2019-04-06T10:56:27.002Z,32.75
2019-04-06T10:59:18.204Z,43.45
2019-04-06T11:01:55.416Z,36.48
2019-04-06T11:04:34.004Z,22.98
2019-04-06T11:07:23.575Z,29.25
2019-04-06T11:10:01.625Z,31.48
2019-04-06T11:12:37.064Z,33.38
2019-04-06T11:15:27.122Z,31.85
2019-04-06T11:18:04.282Z,31.20
2019-04-06T11:20:44.802Z,28.25
2019-04-06T11:23:35.608Z,32.78
2019-04-06T11:26:25.026Z,37.20
2019-04-06T11:28:59.072Z,35.80
2019-04-06T11:31:49.705Z,40.30
2019-04-06T11:34:25.657Z,42.10
2019-04-06T11:37:01.729Z,37.70
2019-04-06T11:39:52.597Z,39.23
2019-04-06T11:42:43.224Z,37.78
2019-04-06T11:45:24.098Z,35.33
2019-04-06T11:48:13.393Z,39.53
2019-04-06T11:50:47.659Z,39.90
2019-04-06T11:53:25.135Z,38.77
2019-04-06T11:56:15.669Z,35.40
2019-04-06T11:58:51.354Z,33.28
2019-04-06T12:01:45.443Z,34.18
2019-04-06T12:04:25.176Z,36.50
2019-04-06T12:07:14.307Z,33.45
2019-04-06T12:10:03.546Z,38.17
2019-04-06T12:12:43.175Z,31.48
2019-04-06T12:15:33.678Z,36.40
2019-04-06T12:18:05.948Z,35.43
2019-04-06T12:20:41.092Z,37.00
2019-04-06T12:23:18.104Z,34.63
2019-04-06T12:25:54.980Z,36.95
2019-04-06T12:28:47.598Z,35.70
2019-04-06T12:31:37.726Z,33.50
2019-04-06T12:34:20.033Z,36.68
2019-04-06T12:36:54.097Z,32.45
2019-04-06T12:39:31.924Z,36.42
2019-04-06T12:42:21.640Z,41.73
2019-04-06T12:44:57.651Z,38.63
2019-04-06T12:47:33.223Z,41.25
2019-04-06T12:50:11.971Z,41.58
2019-04-06T12:53:01.540Z,40.45
2019-04-06T12:55:44.207Z,38.85
2019-04-06T12:58:33.956Z,36.90
2019-04-06T13:01:15.784Z,37.10
2019-04-06T13:03:52.172Z,38.40
2019-04-06T13:06:26.359Z,37.08
2019-04-06T13:09:04.770Z,32.50
2019-04-06T13:11:39.097Z,37.33
2019-04-06T13:14:13.130Z,43.73
2019-04-06T13:16:48.599Z,36.95
2019-04-06T13:19:39.341Z,35.70
2019-04-06T13:22:29.935Z,35.73
2019-04-06T13:25:07.307Z,43.55
2019-04-06T13:27:39.739Z,45.58
2019-04-06T13:30:21.066Z,35.40
2019-04-06T13:32:52.432Z,38.13
2019-04-06T13:35:26.728Z,31.55
2019-04-06T13:38:01.918Z,35.05
2019-04-06T13:40:35.354Z,36.73
2019-04-06T13:43:12.471Z,36.03
2019-04-06T13:46:01.845Z,39.90
2019-04-06T13:48:39.954Z,43.52
2019-04-06T13:51:31.596Z,46.65
2019-04-06T13:54:22.317Z,38.25
2019-04-06T13:57:00.506Z,37.00
2019-04-06T13:59:34.651Z,41.88
2019-04-06T14:02:27.319Z,38.45
2019-04-06T14:05:08.648Z,36.13
2019-04-06T14:07:54.418Z,34.13
2019-04-06T14:10:33.171Z,36.38
2019-04-06T14:13:09.423Z,37.48
2019-04-06T14:15:47.745Z,31.15
2019-04-06T14:18:23.499Z,34.20
2019-04-06T14:21:08.084Z,33.98
2019-04-06T14:24:01.687Z,34.00
2019-04-06T14:26:52.574Z,35.17
2019-04-06T14:29:46.214Z,35.92
2019-04-06T14:32:38.178Z,40.08
2019-04-06T14:35:28.549Z,46.73
2019-04-06T14:38:19.384Z,45.05
2019-04-06T14:41:09.588Z,46.20
2019-04-06T14:44:01.238Z,44.13
2019-04-06T14:46:51.962Z,44.50
2019-04-06T14:49:32.588Z,50.28
2019-04-06T14:52:11.260Z,43.48
2019-04-06T14:55:02.811Z,41.30
2019-04-06T14:57:38.491Z,37.93
2019-04-06T15:00:13.369Z,49.65
2019-04-06T15:02:52.091Z,48.50
2019-04-06T15:05:24.664Z,48.90
2019-04-06T15:08:16.036Z,50.75
2019-04-06T15:11:07.247Z,44.38
2019-04-06T15:13:44.106Z,43.13
2019-04-06T15:16:15.601Z,53.58
2019-04-06T15:19:18.305Z,51.33
2019-04-06T15:22:12.557Z,47.30
2019-04-06T15:25:05.958Z,47.80
2019-04-06T15:27:42.885Z,53.55
2019-04-06T15:30:31.895Z,52.23
2019-04-06T15:33:05.719Z,49.25
2019-04-06T15:35:40.194Z,42.23
2019-04-06T15:38:17.418Z,45.43
2019-04-06T15:40:59.537Z,45.35
2019-04-06T15:43:34.068Z,50.58
2019-04-06T15:46:11.907Z,56.37
2019-04-06T15:48:47.146Z,53.25
2019-04-06T15:51:36.108Z,52.93
2019-04-06T15:54:11.512Z,46.15
2019-04-06T15:59:39.622Z,41.65
2019-04-06T16:02:26.936Z,45.35
2019-04-06T16:05:07.645Z,45.73
2019-04-06T16:07:51.511Z,41.98
2019-04-06T16:10:33.676Z,47.05
2019-04-06T16:13:06.441Z,44.18
2019-04-06T16:15:59.577Z,43.68
2019-04-06T16:18:53.074Z,43.58
2019-04-06T16:21:36.212Z,45.30
2019-04-06T16:24:19.202Z,45.85
2019-04-06T16:26:54.117Z,49.33
2019-04-06T16:29:45.072Z,49.93
2019-04-06T16:32:31.813Z,45.48
2019-04-06T16:35:12.645Z,63.25
2019-04-06T16:37:50.390Z,55.03
2019-04-06T16:40:34.960Z,47.93
2019-04-06T16:43:11.960Z,49.25
2019-04-06T16:46:02.539Z,44.45
2019-04-06T16:48:52.984Z,39.95
2019-04-06T16:51:42.570Z,40.65
2019-04-06T16:54:17.702Z,41.85
2019-04-06T16:56:54.944Z,41.25
2019-04-06T16:59:46.305Z,43.08
2019-04-06T17:02:24.426Z,51.02
2019-04-06T17:04:58.040Z,46.85
2019-04-06T17:07:33.556Z,46.68
2019-04-06T17:10:24.040Z,46.60
2019-04-06T17:13:03.794Z,55.12
2019-04-06T17:15:54.103Z,53.75
2019-04-06T17:18:31.121Z,51.65
2019-04-06T17:21:22.898Z,46.63
2019-04-06T17:24:13.266Z,48.05
2019-04-06T17:27:03.920Z,52.33
2019-04-06T17:29:37.262Z,50.75
2019-04-06T17:32:11.284Z,52.25
2019-04-06T17:35:00.781Z,52.65
2019-04-06T17:37:33.713Z,51.65
2019-04-06T17:40:12.259Z,61.68
2019-04-06T17:42:46.600Z,53.75
2019-04-06T17:45:37.009Z,56.85
2019-04-06T17:48:28.505Z,56.85
2019-04-06T17:51:03.190Z,58.65
2019-04-06T17:53:43.651Z,59.55
2019-04-06T17:56:18.184Z,59.83
2019-04-06T17:58:55.175Z,61.45
2019-04-06T18:01:44.643Z,70.28
2019-04-06T18:04:35.762Z,60.80
2019-04-06T18:07:26.544Z,64.45
2019-04-06T18:10:15.393Z,61.20
2019-04-06T18:12:59.073Z,60.52
2019-04-06T18:15:34.880Z,69.50
2019-04-06T18:18:09.497Z,60.33
2019-04-06T18:20:45.045Z,65.22
2019-04-06T18:23:19.764Z,63.13
2019-04-06T18:25:51.878Z,59.38
2019-04-06T18:28:29.616Z,60.08
2019-04-06T18:31:19.157Z,66.22
2019-04-06T18:33:51.980Z,64.87
2019-04-06T18:36:31.535Z,60.33
2019-04-06T18:39:24.229Z,67.75
2019-04-06T18:41:58.700Z,67.35
2019-04-06T18:44:31.018Z,61.07
2019-04-06T18:47:03.831Z,58.38
2019-04-06T18:49:36.084Z,65.87
2019-04-06T18:52:08.837Z,59.50
2019-04-06T18:54:41.841Z,64.47
2019-04-06T18:57:13.737Z,61.77
2019-04-06T18:59:48.320Z,64.15
2019-04-06T19:02:20.383Z,62.95
2019-04-06T19:04:54.242Z,60.78
2019-04-06T19:07:26.911Z,65.50
2019-04-06T19:10:00.429Z,61.65
2019-04-06T19:12:32.560Z,62.40
2019-04-06T19:15:04.220Z,63.60
2019-04-06T19:17:37.252Z,64.07
2019-04-06T19:20:10.447Z,68.55
2019-04-06T19:22:43.539Z,66.65
2019-04-06T19:25:15.029Z,75.90
2019-04-06T19:27:47.964Z,77.72
2019-04-06T19:30:22.650Z,87.20
2019-04-06T19:32:55.108Z,70.72
2019-04-06T19:35:26.940Z,73.07
2019-04-06T19:37:59.634Z,77.87
2019-04-06T19:40:31.833Z,78.92
2019-04-06T19:43:03.392Z,71.75
2019-04-06T19:45:39.077Z,72.50
2019-04-06T19:48:11.901Z,66.77
2019-04-06T19:50:43.983Z,68.75
2019-04-06T19:53:16.588Z,73.02
2019-04-06T19:55:48.012Z,74.27
2019-04-06T19:58:22.689Z,68.62
2019-04-06T20:00:54.856Z,71.07
2019-04-06T20:03:34.677Z,68.78
2019-04-06T20:06:01.240Z,70.37
2019-04-06T20:08:36.263Z,65.92
2019-04-06T20:11:09.887Z,68.37
2019-04-06T20:13:42.438Z,69.30
2019-04-06T20:16:15.291Z,64.60
2019-04-06T20:18:46.891Z,71.60
2019-04-06T20:21:21.690Z,70.50
2019-04-06T20:23:54.229Z,69.97
2019-04-06T20:26:27.648Z,64.25
2019-04-06T20:28:59.256Z,63.40
2019-04-06T20:31:32.022Z,61.53
2019-04-06T20:34:03.878Z,64.45
2019-04-06T20:36:37.788Z,58.85
2019-04-06T20:39:14.113Z,58.42
2019-04-06T20:41:46.732Z,56.30
2019-04-06T20:44:19.343Z,63.25
2019-04-06T20:46:51.138Z,60.48
2019-04-06T20:49:24.665Z,59.73
2019-04-06T20:51:58.728Z,62.38
2019-04-06T20:54:29.760Z,61.37
2019-04-06T20:57:01.637Z,57.17
2019-04-06T20:59:34.730Z,58.23
2019-04-06T21:02:06.118Z,64.97
2019-04-06T21:04:37.650Z,59.08
2019-04-06T21:07:09.495Z,67.03
2019-04-06T21:09:43.869Z,65.57
2019-04-06T21:12:15.983Z,64.90
2019-04-06T21:14:48.536Z,66.47
2019-04-06T21:17:20.354Z,64.07
2019-04-06T21:19:51.941Z,64.70
2019-04-06T21:22:24.967Z,69.37
2019-04-06T21:24:59.312Z,63.00
2019-04-06T21:27:34.147Z,60.63
2019-04-06T21:30:10.338Z,66.22
2019-04-06T21:32:42.719Z,61.77
2019-04-06T21:35:15.895Z,65.25
2019-04-06T21:37:47.862Z,61.10
2019-04-06T21:40:22.478Z,66.12
2019-04-06T21:42:58.901Z,62.53
2019-04-06T21:45:34.468Z,63.05
2019-04-06T21:48:09.463Z,63.15
2019-04-06T21:50:42.067Z,65.45
2019-04-06T21:53:15.018Z,68.00
2019-04-06T21:55:48.260Z,66.95
2019-04-06T21:58:20.976Z,64.75
2019-04-06T22:00:55.289Z,69.10
2019-04-06T22:03:28.139Z,70.08
2019-04-06T22:05:59.691Z,66.80
2019-04-06T22:08:35.056Z,69.80
2019-04-06T22:11:10.759Z,68.12
2019-04-06T22:13:44.242Z,68.92
2019-04-06T22:16:16.984Z,64.25
2019-04-06T22:18:49.912Z,72.00
2019-04-06T22:21:21.582Z,68.42
2019-04-06T22:23:54.607Z,68.78
2019-04-06T22:26:26.275Z,71.22
2019-04-06T22:28:58.968Z,70.50
2019-04-06T22:31:31.524Z,66.67
2019-04-06T22:34:03.312Z,65.60
2019-04-06T22:36:34.687Z,67.53
2019-04-06T22:39:08.996Z,77.05
2019-04-06T22:41:42.022Z,72.40
2019-04-06T22:44:13.564Z,88.12
2019-04-06T22:46:47.846Z,69.05
2019-04-06T22:49:22.713Z,71.47
2019-04-06T22:51:56.199Z,72.32
2019-04-06T22:54:29.573Z,68.60
2019-04-06T22:57:02.676Z,71.00
2019-04-06T22:59:35.520Z,72.15
2019-04-06T23:02:08.101Z,70.75
2019-04-06T23:04:49.504Z,72.25
2019-04-06T23:07:20.167Z,71.07
2019-04-06T23:12:27.730Z,76.15
2019-04-06T23:15:00.416Z,76.95
2019-04-06T23:17:32.025Z,72.90
2019-04-06T23:20:08.280Z,628.42
2019-04-06T23:22:40.056Z,453.00
2019-04-06T23:25:11.798Z,250.35
2019-04-06T23:27:43.529Z,144.77
2019-04-06T23:30:16.802Z,103.42
2019-04-06T23:32:49.369Z,93.97
2019-04-06T23:35:22.243Z,85.32
2019-04-06T23:37:53.931Z,83.80
2019-04-06T23:40:27.061Z,76.10
2019-04-06T23:43:01.973Z,73.45
2019-04-06T23:45:34.684Z,72.47
2019-04-06T23:48:07.313Z,71.40
2019-04-06T23:50:40.508Z,72.95
2019-04-06T23:53:13.652Z,75.50
2019-04-06T23:55:46.294Z,74.15
2019-04-06T23:58:18.969Z,75.08
